sensor_id;sensor_type;location;lat;lon;timestamp;temperature;humidity
65046;DHT22;54657;52.022;5.534;2024-02-23T00:01:59;6.50;99.90
65046;DHT22;54657;52.022;5.534;2024-02-23T00:04:25;6.40;99.90
65046;DHT22;54657;52.022;5.534;2024-02-23T00:06:51;6.50;99.90
65046;DHT22;54657;52.022;5.534;2024-02-23T00:09:16;6.60;99.90
65046;DHT22;54657;52.022;5.534;2024-02-23T00:11:42;6.60;99.90
65046;DHT22;54657;52.022;5.534;2024-02-23T00:14:13;6.60;99.90
65046;DHT22;54657;52.022;5.534;2024-02-23T00:16:39;6.60;99.90
65046;DHT22;54657;52.022;5.534;2024-02-23T00:19:07;6.60;99.90
65046;DHT22;54657;52.022;5.534;2024-02-23T00:21:32;6.60;99.90
65046;DHT22;54657;52.022;5.534;2024-02-23T00:23:58;6.60;99.90
65046;DHT22;54657;52.022;5.534;2024-02-23T00:26:23;6.60;99.90
65046;DHT22;54657;52.022;5.534;2024-02-23T00:28:49;6.60;99.90
65046;DHT22;54657;52.022;5.534;2024-02-23T00:31:14;6.60;99.90
65046;DHT22;54657;52.022;5.534;2024-02-23T00:33:40;6.70;99.90
65046;DHT22;54657;52.022;5.534;2024-02-23T00:36:07;6.70;99.90
65046;DHT22;54657;52.022;5.534;2024-02-23T00:38:33;6.80;99.90
65046;DHT22;54657;52.022;5.534;2024-02-23T00:40:58;6.80;99.90
65046;DHT22;54657;52.022;5.534;2024-02-23T00:43:24;6.80;99.90
65046;DHT22;54657;52.022;5.534;2024-02-23T00:45:50;6.80;99.90
65046;DHT22;54657;52.022;5.534;2024-02-23T00:48:15;6.90;99.90
65046;DHT22;54657;52.022;5.534;2024-02-23T00:50:41;6.90;99.90
65046;DHT22;54657;52.022;5.534;2024-02-23T00:53:06;6.80;99.90
65046;DHT22;54657;52.022;5.534;2024-02-23T00:55:32;6.80;99.90
65046;DHT22;54657;52.022;5.534;2024-02-23T00:57:57;6.80;99.90
65046;DHT22;54657;52.022;5.534;2024-02-23T01:00:24;6.80;99.90
65046;DHT22;54657;52.022;5.534;2024-02-23T01:02:50;6.90;99.90
65046;DHT22;54657;52.022;5.534;2024-02-23T01:05:17;6.80;99.90
65046;DHT22;54657;52.022;5.534;2024-02-23T01:07:42;6.80;99.90
65046;DHT22;54657;52.022;5.534;2024-02-23T01:10:08;6.80;99.90
65046;DHT22;54657;52.022;5.534;2024-02-23T01:12:35;6.80;99.90
65046;DHT22;54657;52.022;5.534;2024-02-23T01:15:00;6.70;99.90
65046;DHT22;54657;52.022;5.534;2024-02-23T01:17:26;6.70;99.90
65046;DHT22;54657;52.022;5.534;2024-02-23T01:19:51;6.70;99.90
65046;DHT22;54657;52.022;5.534;2024-02-23T01:22:17;6.70;99.90
65046;DHT22;54657;52.022;5.534;2024-02-23T01:24:43;6.70;99.90
65046;DHT22;54657;52.022;5.534;2024-02-23T01:27:08;6.70;99.90
65046;DHT22;54657;52.022;5.534;2024-02-23T01:29:34;6.70;99.90
65046;DHT22;54657;52.022;5.534;2024-02-23T01:32:00;6.70;99.90
65046;DHT22;54657;52.022;5.534;2024-02-23T01:34:25;6.70;99.90
65046;DHT22;54657;52.022;5.534;2024-02-23T01:36:51;6.70;99.90
65046;DHT22;54657;52.022;5.534;2024-02-23T01:39:16;6.70;99.90
65046;DHT22;54657;52.022;5.534;2024-02-23T01:41:42;6.60;99.90
65046;DHT22;54657;52.022;5.534;2024-02-23T01:44:10;6.70;99.90
65046;DHT22;54657;52.022;5.534;2024-02-23T01:46:36;6.60;99.90
65046;DHT22;54657;52.022;5.534;2024-02-23T01:49:03;6.60;99.90
65046;DHT22;54657;52.022;5.534;2024-02-23T01:51:29;6.60;99.90
65046;DHT22;54657;52.022;5.534;2024-02-23T01:53:55;6.60;99.90
65046;DHT22;54657;52.022;5.534;2024-02-23T01:56:21;6.60;99.90
65046;DHT22;54657;52.022;5.534;2024-02-23T01:58:47;6.60;99.90
65046;DHT22;54657;52.022;5.534;2024-02-23T02:01:12;6.50;99.90
65046;DHT22;54657;52.022;5.534;2024-02-23T02:03:39;6.50;99.90
65046;DHT22;54657;52.022;5.534;2024-02-23T02:06:06;6.50;99.90
65046;DHT22;54657;52.022;5.534;2024-02-23T02:08:33;6.50;99.90
65046;DHT22;54657;52.022;5.534;2024-02-23T02:10:59;6.50;99.90
65046;DHT22;54657;52.022;5.534;2024-02-23T02:13:25;6.40;99.90
65046;DHT22;54657;52.022;5.534;2024-02-23T02:15:50;6.40;99.90
65046;DHT22;54657;52.022;5.534;2024-02-23T02:18:16;6.40;99.90
65046;DHT22;54657;52.022;5.534;2024-02-23T02:20:51;6.40;99.90
65046;DHT22;54657;52.022;5.534;2024-02-23T02:23:18;6.40;99.90
65046;DHT22;54657;52.022;5.534;2024-02-23T02:25:43;6.40;99.90
65046;DHT22;54657;52.022;5.534;2024-02-23T02:28:09;6.40;99.90
65046;DHT22;54657;52.022;5.534;2024-02-23T02:30:35;6.40;99.90
65046;DHT22;54657;52.022;5.534;2024-02-23T02:33:00;6.40;99.90
65046;DHT22;54657;52.022;5.534;2024-02-23T02:35:26;6.40;99.90
65046;DHT22;54657;52.022;5.534;2024-02-23T02:37:51;6.40;99.90
65046;DHT22;54657;52.022;5.534;2024-02-23T02:40:17;6.40;99.90
65046;DHT22;54657;52.022;5.534;2024-02-23T02:42:42;6.40;99.90
65046;DHT22;54657;52.022;5.534;2024-02-23T02:45:08;6.40;99.90
65046;DHT22;54657;52.022;5.534;2024-02-23T02:47:34;6.40;99.90
65046;DHT22;54657;52.022;5.534;2024-02-23T02:50:01;6.40;99.90
65046;DHT22;54657;52.022;5.534;2024-02-23T02:52:27;6.30;99.90
65046;DHT22;54657;52.022;5.534;2024-02-23T02:54:53;6.30;99.90
65046;DHT22;54657;52.022;5.534;2024-02-23T02:57:19;6.30;99.90
65046;DHT22;54657;52.022;5.534;2024-02-23T02:59:45;6.40;99.90
65046;DHT22;54657;52.022;5.534;2024-02-23T03:02:11;6.30;99.90
65046;DHT22;54657;52.022;5.534;2024-02-23T03:04:37;6.30;99.90
65046;DHT22;54657;52.022;5.534;2024-02-23T03:07:02;6.30;99.90
65046;DHT22;54657;52.022;5.534;2024-02-23T03:09:28;6.30;99.90
65046;DHT22;54657;52.022;5.534;2024-02-23T03:11:53;6.30;99.90
65046;DHT22;54657;52.022;5.534;2024-02-23T03:14:19;6.30;99.90
65046;DHT22;54657;52.022;5.534;2024-02-23T03:16:46;6.30;99.90
65046;DHT22;54657;52.022;5.534;2024-02-23T03:19:13;6.30;99.90
65046;DHT22;54657;52.022;5.534;2024-02-23T03:21:38;6.20;99.90
65046;DHT22;54657;52.022;5.534;2024-02-23T03:24:04;6.20;99.90
65046;DHT22;54657;52.022;5.534;2024-02-23T03:26:30;6.10;99.90
65046;DHT22;54657;52.022;5.534;2024-02-23T03:28:55;6.20;99.90
65046;DHT22;54657;52.022;5.534;2024-02-23T03:31:21;6.10;99.90
65046;DHT22;54657;52.022;5.534;2024-02-23T03:33:46;6.10;99.90
65046;DHT22;54657;52.022;5.534;2024-02-23T03:36:12;6.20;99.90
65046;DHT22;54657;52.022;5.534;2024-02-23T03:38:37;6.10;99.90
65046;DHT22;54657;52.022;5.534;2024-02-23T03:41:03;6.20;99.90
65046;DHT22;54657;52.022;5.534;2024-02-23T03:43:29;6.10;99.90
65046;DHT22;54657;52.022;5.534;2024-02-23T03:45:54;6.10;99.90
65046;DHT22;54657;52.022;5.534;2024-02-23T03:48:20;6.10;99.90
65046;DHT22;54657;52.022;5.534;2024-02-23T03:50:46;6.10;99.90
65046;DHT22;54657;52.022;5.534;2024-02-23T03:53:11;6.10;99.90
65046;DHT22;54657;52.022;5.534;2024-02-23T03:55:37;6.10;99.90
65046;DHT22;54657;52.022;5.534;2024-02-23T03:58:02;6.10;99.90
65046;DHT22;54657;52.022;5.534;2024-02-23T04:00:28;6.10;99.90
65046;DHT22;54657;52.022;5.534;2024-02-23T04:02:54;6.10;99.90
65046;DHT22;54657;52.022;5.534;2024-02-23T04:05:19;6.00;99.90
65046;DHT22;54657;52.022;5.534;2024-02-23T04:07:45;6.00;99.90
65046;DHT22;54657;52.022;5.534;2024-02-23T04:10:10;6.10;99.90
65046;DHT22;54657;52.022;5.534;2024-02-23T04:12:41;6.10;99.90
65046;DHT22;54657;52.022;5.534;2024-02-23T04:15:08;6.10;99.90
65046;DHT22;54657;52.022;5.534;2024-02-23T04:17:33;6.10;99.90
65046;DHT22;54657;52.022;5.534;2024-02-23T04:20:01;6.10;99.90
65046;DHT22;54657;52.022;5.534;2024-02-23T04:22:30;6.10;99.90
65046;DHT22;54657;52.022;5.534;2024-02-23T04:24:55;6.10;99.90
65046;DHT22;54657;52.022;5.534;2024-02-23T04:27:21;6.10;99.90
65046;DHT22;54657;52.022;5.534;2024-02-23T04:29:46;6.10;99.90
65046;DHT22;54657;52.022;5.534;2024-02-23T04:32:12;6.10;99.90
65046;DHT22;54657;52.022;5.534;2024-02-23T04:34:38;6.10;99.90
65046;DHT22;54657;52.022;5.534;2024-02-23T04:37:05;6.10;99.90
65046;DHT22;54657;52.022;5.534;2024-02-23T04:39:30;6.10;99.90
65046;DHT22;54657;52.022;5.534;2024-02-23T04:41:56;6.10;99.90
65046;DHT22;54657;52.022;5.534;2024-02-23T04:44:21;6.20;99.90
65046;DHT22;54657;52.022;5.534;2024-02-23T04:46:47;6.10;99.90
65046;DHT22;54657;52.022;5.534;2024-02-23T04:49:12;6.20;99.90
65046;DHT22;54657;52.022;5.534;2024-02-23T04:51:38;6.10;99.90
65046;DHT22;54657;52.022;5.534;2024-02-23T04:54:04;6.20;99.90
65046;DHT22;54657;52.022;5.534;2024-02-23T04:56:29;6.20;99.90
65046;DHT22;54657;52.022;5.534;2024-02-23T04:58:55;6.20;99.90
65046;DHT22;54657;52.022;5.534;2024-02-23T05:01:20;6.20;99.90
65046;DHT22;54657;52.022;5.534;2024-02-23T05:03:46;6.20;99.90
65046;DHT22;54657;52.022;5.534;2024-02-23T05:06:11;6.20;99.90
65046;DHT22;54657;52.022;5.534;2024-02-23T05:08:38;6.20;99.90
65046;DHT22;54657;52.022;5.534;2024-02-23T05:11:03;6.30;99.90
65046;DHT22;54657;52.022;5.534;2024-02-23T05:13:29;6.30;99.90
65046;DHT22;54657;52.022;5.534;2024-02-23T05:15:58;6.40;99.90
65046;DHT22;54657;52.022;5.534;2024-02-23T05:18:23;6.30;99.80
65046;DHT22;54657;52.022;5.534;2024-02-23T05:20:49;6.40;99.90
65046;DHT22;54657;52.022;5.534;2024-02-23T05:23:15;6.40;99.90
65046;DHT22;54657;52.022;5.534;2024-02-23T05:25:43;6.40;99.90
65046;DHT22;54657;52.022;5.534;2024-02-23T05:28:09;6.40;99.90
65046;DHT22;54657;52.022;5.534;2024-02-23T05:30:34;6.40;99.80
65046;DHT22;54657;52.022;5.534;2024-02-23T05:33:00;6.50;99.80
65046;DHT22;54657;52.022;5.534;2024-02-23T05:35:28;6.50;99.80
65046;DHT22;54657;52.022;5.534;2024-02-23T05:37:54;6.50;99.80
65046;DHT22;54657;52.022;5.534;2024-02-23T05:40:21;6.50;99.60
65046;DHT22;54657;52.022;5.534;2024-02-23T05:42:46;6.60;99.60
65046;DHT22;54657;52.022;5.534;2024-02-23T05:45:12;6.50;99.50
65046;DHT22;54657;52.022;5.534;2024-02-23T05:47:41;6.60;99.60
65046;DHT22;54657;52.022;5.534;2024-02-23T05:50:08;6.60;99.40
65046;DHT22;54657;52.022;5.534;2024-02-23T05:52:34;6.60;99.50
65046;DHT22;54657;52.022;5.534;2024-02-23T05:55:02;6.60;99.20
65046;DHT22;54657;52.022;5.534;2024-02-23T05:57:27;6.60;99.30
65046;DHT22;54657;52.022;5.534;2024-02-23T05:59:53;6.60;99.20
65046;DHT22;54657;52.022;5.534;2024-02-23T06:02:19;6.70;99.40
65046;DHT22;54657;52.022;5.534;2024-02-23T06:04:44;6.70;99.20
65046;DHT22;54657;52.022;5.534;2024-02-23T06:07:10;6.70;99.10
65046;DHT22;54657;52.022;5.534;2024-02-23T06:09:36;6.70;98.90
65046;DHT22;54657;52.022;5.534;2024-02-23T06:12:02;6.70;99.00
65046;DHT22;54657;52.022;5.534;2024-02-23T06:14:28;6.80;99.00
65046;DHT22;54657;52.022;5.534;2024-02-23T06:16:53;6.80;98.80
65046;DHT22;54657;52.022;5.534;2024-02-23T06:19:19;6.70;98.70
65046;DHT22;54657;52.022;5.534;2024-02-23T06:21:48;6.80;98.80
65046;DHT22;54657;52.022;5.534;2024-02-23T06:24:17;6.70;98.20
65046;DHT22;54657;52.022;5.534;2024-02-23T06:26:43;6.70;98.70
65046;DHT22;54657;52.022;5.534;2024-02-23T06:29:09;6.80;98.70
65046;DHT22;54657;52.022;5.534;2024-02-23T06:31:38;6.80;98.60
65046;DHT22;54657;52.022;5.534;2024-02-23T06:34:05;6.90;98.80
65046;DHT22;54657;52.022;5.534;2024-02-23T06:36:30;6.80;98.60
65046;DHT22;54657;52.022;5.534;2024-02-23T06:38:56;6.80;98.40
65046;DHT22;54657;52.022;5.534;2024-02-23T06:41:22;6.80;98.60
65046;DHT22;54657;52.022;5.534;2024-02-23T06:43:47;6.90;98.70
65046;DHT22;54657;52.022;5.534;2024-02-23T06:46:13;6.80;98.50
65046;DHT22;54657;52.022;5.534;2024-02-23T06:48:38;6.90;98.50
65046;DHT22;54657;52.022;5.534;2024-02-23T06:51:07;6.90;98.20
65046;DHT22;54657;52.022;5.534;2024-02-23T06:53:35;6.90;98.30
65046;DHT22;54657;52.022;5.534;2024-02-23T06:56:01;7.00;98.40
65046;DHT22;54657;52.022;5.534;2024-02-23T06:58:27;7.00;98.70
65046;DHT22;54657;52.022;5.534;2024-02-23T07:00:53;7.00;98.40
65046;DHT22;54657;52.022;5.534;2024-02-23T07:03:19;7.00;98.40
65046;DHT22;54657;52.022;5.534;2024-02-23T07:05:45;7.00;98.40
65046;DHT22;54657;52.022;5.534;2024-02-23T07:08:11;7.10;98.40
65046;DHT22;54657;52.022;5.534;2024-02-23T07:10:37;7.00;98.20
65046;DHT22;54657;52.022;5.534;2024-02-23T07:13:02;7.10;98.20
65046;DHT22;54657;52.022;5.534;2024-02-23T07:15:28;7.00;97.70
65046;DHT22;54657;52.022;5.534;2024-02-23T07:17:55;7.00;98.00
65046;DHT22;54657;52.022;5.534;2024-02-23T07:20:21;7.00;98.00
65046;DHT22;54657;52.022;5.534;2024-02-23T07:22:47;7.00;97.50
65046;DHT22;54657;52.022;5.534;2024-02-23T07:25:19;7.00;98.00
65046;DHT22;54657;52.022;5.534;2024-02-23T07:27:46;7.10;97.80
65046;DHT22;54657;52.022;5.534;2024-02-23T07:30:12;7.00;97.50
65046;DHT22;54657;52.022;5.534;2024-02-23T07:32:38;7.10;98.00
65046;DHT22;54657;52.022;5.534;2024-02-23T07:35:04;7.10;97.30
65046;DHT22;54657;52.022;5.534;2024-02-23T07:37:30;7.10;97.20
65046;DHT22;54657;52.022;5.534;2024-02-23T07:39:55;7.10;97.60
65046;DHT22;54657;52.022;5.534;2024-02-23T07:42:21;7.10;97.20
65046;DHT22;54657;52.022;5.534;2024-02-23T07:44:47;7.10;97.10
65046;DHT22;54657;52.022;5.534;2024-02-23T07:47:12;7.10;97.10
65046;DHT22;54657;52.022;5.534;2024-02-23T07:49:38;7.10;96.10
65046;DHT22;54657;52.022;5.534;2024-02-23T07:52:06;7.10;97.00
65046;DHT22;54657;52.022;5.534;2024-02-23T07:54:32;7.20;97.20
65046;DHT22;54657;52.022;5.534;2024-02-23T07:56:58;7.20;97.00
65046;DHT22;54657;52.022;5.534;2024-02-23T07:59:24;7.30;97.20
65046;DHT22;54657;52.022;5.534;2024-02-23T08:01:50;7.40;97.10
65046;DHT22;54657;52.022;5.534;2024-02-23T08:04:15;7.40;97.00
65046;DHT22;54657;52.022;5.534;2024-02-23T08:06:43;7.40;96.80
65046;DHT22;54657;52.022;5.534;2024-02-23T08:09:09;7.50;97.20
65046;DHT22;54657;52.022;5.534;2024-02-23T08:11:35;7.40;96.40
65046;DHT22;54657;52.022;5.534;2024-02-23T08:14:00;7.50;96.70
65046;DHT22;54657;52.022;5.534;2024-02-23T08:16:28;7.50;96.70
65046;DHT22;54657;52.022;5.534;2024-02-23T08:18:54;7.50;97.00
65046;DHT22;54657;52.022;5.534;2024-02-23T08:21:19;7.50;96.70
65046;DHT22;54657;52.022;5.534;2024-02-23T08:23:45;7.60;96.90
65046;DHT22;54657;52.022;5.534;2024-02-23T08:26:11;7.60;95.80
65046;DHT22;54657;52.022;5.534;2024-02-23T08:28:36;7.60;96.40
65046;DHT22;54657;52.022;5.534;2024-02-23T08:31:02;7.60;96.50
65046;DHT22;54657;52.022;5.534;2024-02-23T08:33:27;7.50;96.00
65046;DHT22;54657;52.022;5.534;2024-02-23T08:35:53;7.60;96.20
65046;DHT22;54657;52.022;5.534;2024-02-23T08:38:18;7.60;96.40
65046;DHT22;54657;52.022;5.534;2024-02-23T08:40:44;7.60;96.40
65046;DHT22;54657;52.022;5.534;2024-02-23T08:43:10;7.60;96.00
65046;DHT22;54657;52.022;5.534;2024-02-23T08:45:36;7.60;96.00
65046;DHT22;54657;52.022;5.534;2024-02-23T08:48:02;7.60;96.10
65046;DHT22;54657;52.022;5.534;2024-02-23T08:50:29;7.70;96.40
65046;DHT22;54657;52.022;5.534;2024-02-23T08:52:54;7.60;95.80
65046;DHT22;54657;52.022;5.534;2024-02-23T08:55:22;7.60;95.90
65046;DHT22;54657;52.022;5.534;2024-02-23T08:57:48;7.60;96.20
65046;DHT22;54657;52.022;5.534;2024-02-23T09:00:14;7.70;96.00
65046;DHT22;54657;52.022;5.534;2024-02-23T09:02:40;7.60;96.10
65046;DHT22;54657;52.022;5.534;2024-02-23T09:05:08;7.60;95.80
65046;DHT22;54657;52.022;5.534;2024-02-23T09:07:33;7.70;95.90
65046;DHT22;54657;52.022;5.534;2024-02-23T09:09:59;7.70;95.90
65046;DHT22;54657;52.022;5.534;2024-02-23T09:12:24;7.70;95.70
65046;DHT22;54657;52.022;5.534;2024-02-23T09:14:51;7.60;95.30
65046;DHT22;54657;52.022;5.534;2024-02-23T09:17:16;7.70;96.00
65046;DHT22;54657;52.022;5.534;2024-02-23T09:19:44;7.70;96.00
65046;DHT22;54657;52.022;5.534;2024-02-23T09:22:09;7.70;95.80
65046;DHT22;54657;52.022;5.534;2024-02-23T09:24:35;7.70;95.80
65046;DHT22;54657;52.022;5.534;2024-02-23T09:27:04;7.80;95.80
65046;DHT22;54657;52.022;5.534;2024-02-23T09:29:29;7.80;95.80
65046;DHT22;54657;52.022;5.534;2024-02-23T09:31:55;7.80;95.70
65046;DHT22;54657;52.022;5.534;2024-02-23T09:34:20;7.80;95.60
65046;DHT22;54657;52.022;5.534;2024-02-23T09:36:46;7.90;95.90
65046;DHT22;54657;52.022;5.534;2024-02-23T09:39:11;7.80;95.70
65046;DHT22;54657;52.022;5.534;2024-02-23T09:41:38;7.90;95.30
65046;DHT22;54657;52.022;5.534;2024-02-23T09:44:04;7.80;95.50
65046;DHT22;54657;52.022;5.534;2024-02-23T09:46:32;7.90;95.60
65046;DHT22;54657;52.022;5.534;2024-02-23T09:48:59;7.90;95.70
65046;DHT22;54657;52.022;5.534;2024-02-23T09:51:25;8.00;95.80
65046;DHT22;54657;52.022;5.534;2024-02-23T09:53:51;8.00;95.80
65046;DHT22;54657;52.022;5.534;2024-02-23T09:56:17;7.90;95.80
65046;DHT22;54657;52.022;5.534;2024-02-23T09:58:46;7.90;96.00
65046;DHT22;54657;52.022;5.534;2024-02-23T10:01:15;7.80;96.20
65046;DHT22;54657;52.022;5.534;2024-02-23T10:03:45;7.80;96.50
65046;DHT22;54657;52.022;5.534;2024-02-23T10:06:10;7.80;96.70
65046;DHT22;54657;52.022;5.534;2024-02-23T10:08:36;7.70;96.70
65046;DHT22;54657;52.022;5.534;2024-02-23T10:11:01;7.70;96.80
65046;DHT22;54657;52.022;5.534;2024-02-23T10:13:29;7.70;96.80
65046;DHT22;54657;52.022;5.534;2024-02-23T10:15:55;7.70;97.10
65046;DHT22;54657;52.022;5.534;2024-02-23T10:18:20;7.80;97.20
65046;DHT22;54657;52.022;5.534;2024-02-23T10:20:47;7.80;97.10
65046;DHT22;54657;52.022;5.534;2024-02-23T10:23:12;7.80;97.00
65046;DHT22;54657;52.022;5.534;2024-02-23T10:25:38;7.80;96.80
65046;DHT22;54657;52.022;5.534;2024-02-23T10:28:06;7.80;96.80
65046;DHT22;54657;52.022;5.534;2024-02-23T10:30:32;7.80;96.80
65046;DHT22;54657;52.022;5.534;2024-02-23T10:32:58;7.90;96.80
65046;DHT22;54657;52.022;5.534;2024-02-23T10:35:25;7.90;96.50
65046;DHT22;54657;52.022;5.534;2024-02-23T10:37:52;8.00;96.80
65046;DHT22;54657;52.022;5.534;2024-02-23T10:40:19;8.00;96.60
65046;DHT22;54657;52.022;5.534;2024-02-23T10:42:47;8.00;96.50
65046;DHT22;54657;52.022;5.534;2024-02-23T10:45:20;8.00;96.60
65046;DHT22;54657;52.022;5.534;2024-02-23T10:47:46;8.10;96.70
65046;DHT22;54657;52.022;5.534;2024-02-23T10:50:13;8.00;96.00
65046;DHT22;54657;52.022;5.534;2024-02-23T10:52:43;8.00;96.60
65046;DHT22;54657;52.022;5.534;2024-02-23T10:55:10;8.10;96.60
65046;DHT22;54657;52.022;5.534;2024-02-23T10:57:36;8.00;96.60
65046;DHT22;54657;52.022;5.534;2024-02-23T11:00:03;8.00;96.80
65046;DHT22;54657;52.022;5.534;2024-02-23T11:02:33;8.10;96.70
65046;DHT22;54657;52.022;5.534;2024-02-23T11:05:01;8.10;96.70
65046;DHT22;54657;52.022;5.534;2024-02-23T11:07:30;8.10;96.70
65046;DHT22;54657;52.022;5.534;2024-02-23T11:09:59;8.20;96.80
65046;DHT22;54657;52.022;5.534;2024-02-23T11:12:25;8.20;96.30
65046;DHT22;54657;52.022;5.534;2024-02-23T11:14:51;8.20;96.40
65046;DHT22;54657;52.022;5.534;2024-02-23T11:17:22;8.20;96.40
65046;DHT22;54657;52.022;5.534;2024-02-23T11:19:49;8.30;96.40
65046;DHT22;54657;52.022;5.534;2024-02-23T11:22:31;8.30;96.20
65046;DHT22;54657;52.022;5.534;2024-02-23T11:25:17;8.30;96.10
65046;DHT22;54657;52.022;5.534;2024-02-23T11:27:43;8.30;95.40
65046;DHT22;54657;52.022;5.534;2024-02-23T11:30:09;8.30;96.10
65046;DHT22;54657;52.022;5.534;2024-02-23T11:35:02;8.40;96.30
65046;DHT22;54657;52.022;5.534;2024-02-23T11:37:28;8.40;95.30
65046;DHT22;54657;52.022;5.534;2024-02-23T11:39:55;8.50;96.00
65046;DHT22;54657;52.022;5.534;2024-02-23T11:42:23;8.50;95.80
65046;DHT22;54657;52.022;5.534;2024-02-23T11:44:50;8.50;95.70
65046;DHT22;54657;52.022;5.534;2024-02-23T11:47:19;8.50;95.70
65046;DHT22;54657;52.022;5.534;2024-02-23T11:49:44;8.60;95.70
65046;DHT22;54657;52.022;5.534;2024-02-23T11:52:10;8.60;95.70
65046;DHT22;54657;52.022;5.534;2024-02-23T11:54:37;8.60;95.30
65046;DHT22;54657;52.022;5.534;2024-02-23T11:57:03;8.70;95.50
65046;DHT22;54657;52.022;5.534;2024-02-23T11:59:28;8.80;95.70
65046;DHT22;54657;52.022;5.534;2024-02-23T12:01:54;8.70;95.40
65046;DHT22;54657;52.022;5.534;2024-02-23T12:04:20;8.70;95.30
65046;DHT22;54657;52.022;5.534;2024-02-23T12:06:45;8.80;95.60
65046;DHT22;54657;52.022;5.534;2024-02-23T12:09:12;8.80;95.40
65046;DHT22;54657;52.022;5.534;2024-02-23T12:11:38;8.90;95.40
65046;DHT22;54657;52.022;5.534;2024-02-23T12:14:04;8.90;95.40
65046;DHT22;54657;52.022;5.534;2024-02-23T12:16:34;9.00;95.60
65046;DHT22;54657;52.022;5.534;2024-02-23T12:19:01;9.00;95.50
65046;DHT22;54657;52.022;5.534;2024-02-23T12:21:28;9.00;95.20
65046;DHT22;54657;52.022;5.534;2024-02-23T12:23:53;9.00;95.10
65046;DHT22;54657;52.022;5.534;2024-02-23T12:26:19;9.10;95.10
65046;DHT22;54657;52.022;5.534;2024-02-23T12:28:45;9.20;95.30
65046;DHT22;54657;52.022;5.534;2024-02-23T12:31:13;9.20;95.20
65046;DHT22;54657;52.022;5.534;2024-02-23T12:33:40;9.20;94.40
65046;DHT22;54657;52.022;5.534;2024-02-23T12:36:07;9.30;94.90
65046;DHT22;54657;52.022;5.534;2024-02-23T12:38:33;9.30;94.70
65046;DHT22;54657;52.022;5.534;2024-02-23T12:41:00;9.30;94.90
65046;DHT22;54657;52.022;5.534;2024-02-23T12:43:25;9.30;94.70
65046;DHT22;54657;52.022;5.534;2024-02-23T12:45:52;9.40;94.80
65046;DHT22;54657;52.022;5.534;2024-02-23T12:48:18;9.40;94.20
65046;DHT22;54657;52.022;5.534;2024-02-23T12:50:45;9.30;94.30
65046;DHT22;54657;52.022;5.534;2024-02-23T12:53:36;9.40;94.40
65046;DHT22;54657;52.022;5.534;2024-02-23T12:56:04;9.40;94.40
65046;DHT22;54657;52.022;5.534;2024-02-23T12:58:33;9.40;94.10
65046;DHT22;54657;52.022;5.534;2024-02-23T13:00:59;9.40;93.60
65046;DHT22;54657;52.022;5.534;2024-02-23T13:03:25;9.40;93.80
65046;DHT22;54657;52.022;5.534;2024-02-23T13:05:53;9.40;94.00
65046;DHT22;54657;52.022;5.534;2024-02-23T13:08:18;9.40;93.90
65046;DHT22;54657;52.022;5.534;2024-02-23T13:10:44;9.50;93.90
65046;DHT22;54657;52.022;5.534;2024-02-23T13:13:10;9.40;93.90
65046;DHT22;54657;52.022;5.534;2024-02-23T13:15:35;9.40;93.70
65046;DHT22;54657;52.022;5.534;2024-02-23T13:18:03;9.30;93.30
65046;DHT22;54657;52.022;5.534;2024-02-23T13:20:29;9.40;94.10
65046;DHT22;54657;52.022;5.534;2024-02-23T13:22:55;9.40;94.00
65046;DHT22;54657;52.022;5.534;2024-02-23T13:25:21;9.30;93.40
65046;DHT22;54657;52.022;5.534;2024-02-23T13:27:46;9.30;93.60
65046;DHT22;54657;52.022;5.534;2024-02-23T13:30:12;9.30;93.60
65046;DHT22;54657;52.022;5.534;2024-02-23T13:32:38;9.30;93.80
65046;DHT22;54657;52.022;5.534;2024-02-23T13:35:04;9.40;94.00
65046;DHT22;54657;52.022;5.534;2024-02-23T13:37:31;9.40;93.50
65046;DHT22;54657;52.022;5.534;2024-02-23T13:39:57;9.40;93.80
65046;DHT22;54657;52.022;5.534;2024-02-23T13:42:23;9.50;93.50
65046;DHT22;54657;52.022;5.534;2024-02-23T13:44:49;9.50;93.40
65046;DHT22;54657;52.022;5.534;2024-02-23T13:47:14;9.50;93.30
65046;DHT22;54657;52.022;5.534;2024-02-23T13:49:40;9.50;93.10
65046;DHT22;54657;52.022;5.534;2024-02-23T13:52:05;9.60;93.30
65046;DHT22;54657;52.022;5.534;2024-02-23T13:54:31;9.60;93.20
65046;DHT22;54657;52.022;5.534;2024-02-23T13:56:57;9.60;93.10
65046;DHT22;54657;52.022;5.534;2024-02-23T13:59:22;9.70;93.60
65046;DHT22;54657;52.022;5.534;2024-02-23T14:01:48;9.70;93.20
65046;DHT22;54657;52.022;5.534;2024-02-23T14:04:13;9.80;93.20
65046;DHT22;54657;52.022;5.534;2024-02-23T14:06:39;9.80;93.40
65046;DHT22;54657;52.022;5.534;2024-02-23T14:09:04;9.80;93.20
65046;DHT22;54657;52.022;5.534;2024-02-23T14:11:30;9.80;93.20
65046;DHT22;54657;52.022;5.534;2024-02-23T14:13:56;9.80;92.90
65046;DHT22;54657;52.022;5.534;2024-02-23T14:16:22;9.80;92.90
65046;DHT22;54657;52.022;5.534;2024-02-23T14:18:49;9.70;92.50
65046;DHT22;54657;52.022;5.534;2024-02-23T14:21:15;9.80;92.80
65046;DHT22;54657;52.022;5.534;2024-02-23T14:23:41;9.80;92.90
65046;DHT22;54657;52.022;5.534;2024-02-23T14:26:07;9.90;93.00
65046;DHT22;54657;52.022;5.534;2024-02-23T14:28:33;9.90;92.90
65046;DHT22;54657;52.022;5.534;2024-02-23T14:30:58;9.90;92.60
65046;DHT22;54657;52.022;5.534;2024-02-23T14:33:24;9.90;92.40
65046;DHT22;54657;52.022;5.534;2024-02-23T14:35:49;9.90;92.50
65046;DHT22;54657;52.022;5.534;2024-02-23T14:38:15;9.90;92.70
65046;DHT22;54657;52.022;5.534;2024-02-23T14:40:42;9.90;92.50
65046;DHT22;54657;52.022;5.534;2024-02-23T14:43:08;9.90;92.30
65046;DHT22;54657;52.022;5.534;2024-02-23T14:45:35;9.90;92.50
65046;DHT22;54657;52.022;5.534;2024-02-23T14:48:01;9.90;92.70
65046;DHT22;54657;52.022;5.534;2024-02-23T14:50:26;10.00;92.50
65046;DHT22;54657;52.022;5.534;2024-02-23T14:52:52;10.10;92.60
65046;DHT22;54657;52.022;5.534;2024-02-23T14:55:17;10.10;92.30
65046;DHT22;54657;52.022;5.534;2024-02-23T14:57:43;10.10;92.30
65046;DHT22;54657;52.022;5.534;2024-02-23T15:00:09;10.10;92.40
65046;DHT22;54657;52.022;5.534;2024-02-23T15:02:35;10.10;92.40
65046;DHT22;54657;52.022;5.534;2024-02-23T15:05:01;10.10;92.80
65046;DHT22;54657;52.022;5.534;2024-02-23T15:07:26;10.10;92.00
65046;DHT22;54657;52.022;5.534;2024-02-23T15:09:53;10.00;92.00
65046;DHT22;54657;52.022;5.534;2024-02-23T15:12:19;10.00;91.90
65046;DHT22;54657;52.022;5.534;2024-02-23T15:14:44;9.90;91.70
65046;DHT22;54657;52.022;5.534;2024-02-23T15:17:10;10.00;91.90
65046;DHT22;54657;52.022;5.534;2024-02-23T15:19:35;10.00;91.80
65046;DHT22;54657;52.022;5.534;2024-02-23T15:22:01;10.00;91.90
65046;DHT22;54657;52.022;5.534;2024-02-23T15:24:27;10.00;91.60
65046;DHT22;54657;52.022;5.534;2024-02-23T15:26:53;10.00;91.80
65046;DHT22;54657;52.022;5.534;2024-02-23T15:29:18;9.80;92.30
65046;DHT22;54657;52.022;5.534;2024-02-23T15:31:44;9.70;92.40
65046;DHT22;54657;52.022;5.534;2024-02-23T15:34:10;9.60;92.80
65046;DHT22;54657;52.022;5.534;2024-02-23T15:36:36;9.40;92.80
65046;DHT22;54657;52.022;5.534;2024-02-23T15:39:01;9.40;93.10
65046;DHT22;54657;52.022;5.534;2024-02-23T15:41:29;9.40;93.40